首页
METAR-TAF:

METAR-TAF

机场 :

喀什机场

喀什, 中华人民共和国

纬度: 39-28N, 经度: 075-59E, 海拔: 1291米

当前天气观测

该预报发布于1小时和18分钟前的15:00 UTC
风速6节,风向北转西北
温度 -7°C
湿度 57%
气压 1027 hPa
能見度: 5000
浮尘

METAR: ZWSH 131500Z 34003MPS 5000 DU NSC M07/M14 Q1027 NOSIG

时间: 00:18 (16:18 UTC)

预报

该预报发布于7小时和13分钟前的09:05 UTC
预报有效从13日的 12点(UTC)到 14日的 12点(UTC)
风速8节,风向南转南东
能見度: 7000
成为
从 13日的 14点(UTC)到 13日的 15点(UTC)
风速8节,风向北转西北
少量云层高于4000英尺

TAF: ZWSH 130905Z 1312/1412 15004MPS 7000 NSC TXM02/09Z TNM10/00Z BECMG 1314/1315 33004MPS FEW040

超过4000个机场的气象观测和天气预报(METAR&TAF报告)。

可查询的气象台以黄色和红色小点在地图上表示。

将鼠标移到小点上方,可查看气象台名称。

然后点击查看天气观测和预报。

如需切换地图:点击带黑十字的绿色按钮放大地图;点击带横线的绿色按钮缩小地图;或者点击绿色箭头查看邻近地区的地图。


METAR-TAF: